Time;durP1;ratioP1;P1;durP2;ratioP2;P2;SDS_P1;SDS_P2;PMS_P1;PMS_P2;Temp;Humidity;BMP_temperature;BMP_pressure;BME280_temperature;BME280_humidity;BME280_pressure;Samples;Min_cycle;Max_cycle;Signal;HPM_P1;HPM_P2
2024/02/04 00:01:33;;;;;;;10.73;10.13;;;7.90;99.90;;;;;;5028097;28;20231;-78
2024/02/04 00:04:00;;;;;;;10.80;10.20;;;7.80;99.90;;;;;;5043121;28;20717;-78
2024/02/04 00:06:27;;;;;;;11.43;10.73;;;7.90;99.90;;;;;;5021840;28;20200;-78
2024/02/04 00:08:53;;;;;;;11.00;10.30;;;7.80;99.90;;;;;;5035896;28;20291;-78
2024/02/04 00:11:20;;;;;;;10.67;10.03;;;7.80;99.90;;;;;;5041595;28;20196;-78
2024/02/04 00:13:47;;;;;;;10.87;10.27;;;7.80;99.90;;;;;;5021607;28;20203;-78
2024/02/04 00:16:14;;;;;;;10.87;10.20;;;7.80;99.90;;;;;;5039153;28;20227;-78
2024/02/04 00:18:43;;;;;;;10.73;10.13;;;7.80;99.90;;;;;;5039360;28;20211;-78
2024/02/04 00:21:09;;;;;;;10.90;10.30;;;7.80;99.90;;;;;;5019163;28;20234;-78
2024/02/04 00:23:36;;;;;;;10.70;10.10;;;7.80;99.90;;;;;;5039658;28;20701;-78
2024/02/04 00:26:03;;;;;;;11.10;10.50;;;7.90;99.90;;;;;;5017641;28;20287;-78
2024/02/04 00:28:30;;;;;;;11.00;10.40;;;7.90;99.90;;;;;;5020582;28;20222;-79
2024/02/04 00:30:58;;;;;;;11.07;10.37;;;7.90;99.90;;;;;;5016822;28;20231;-78
2024/02/04 00:33:25;;;;;;;11.13;10.50;;;7.80;99.90;;;;;;5040660;28;20201;-79
2024/02/04 00:35:53;;;;;;;11.30;10.60;;;7.80;99.90;;;;;;5020793;28;20226;-78
2024/02/04 00:38:20;;;;;;;11.70;10.90;;;7.90;99.90;;;;;;5021036;28;20682;-78
2024/02/04 00:40:47;;;;;;;11.50;10.80;;;7.90;99.90;;;;;;5022957;28;20195;-79
2024/02/04 00:43:14;;;;;;;11.00;10.40;;;7.80;99.90;;;;;;5043367;28;20212;-78
2024/02/04 00:45:40;;;;;;;11.10;10.40;;;7.80;99.90;;;;;;5022652;28;20215;-78
2024/02/04 00:48:07;;;;;;;11.10;10.50;;;7.80;99.90;;;;;;5050230;28;20248;-78
2024/02/04 00:50:34;;;;;;;11.00;10.40;;;7.80;99.90;;;;;;5040424;28;20249;-78
2024/02/04 00:53:02;;;;;;;11.50;10.80;;;7.80;99.90;;;;;;5043595;28;20200;-78
2024/02/04 00:55:29;;;;;;;11.10;10.40;;;7.80;99.90;;;;;;5024717;28;20200;-78
2024/02/04 00:57:58;;;;;;;11.20;10.60;;;7.80;99.90;;;;;;5018944;28;20199;-78
2024/02/04 01:00:25;;;;;;;11.57;10.87;;;7.80;99.90;;;;;;5026771;28;20650;-79
2024/02/04 01:02:52;;;;;;;11.43;10.80;;;7.80;99.90;;;;;;5026890;28;20674;-78
2024/02/04 01:05:19;;;;;;;10.90;10.30;;;7.70;99.90;;;;;;5039567;28;20200;-78
2024/02/04 01:07:46;;;;;;;11.17;10.47;;;7.70;99.90;;;;;;5017088;28;20675;-78
2024/02/04 01:10:14;;;;;;;10.83;10.23;;;7.80;99.90;;;;;;5019689;28;20257;-78
2024/02/04 01:12:41;;;;;;;10.97;10.37;;;7.80;99.90;;;;;;5016762;28;20719;-78
2024/02/04 01:15:08;;;;;;;10.93;10.33;;;7.70;99.90;;;;;;5019547;28;20219;-78
2024/02/04 01:17:35;;;;;;;11.40;10.70;;;7.70;99.90;;;;;;5022533;28;20200;-78
2024/02/04 01:20:03;;;;;;;10.83;10.23;;;7.80;99.90;;;;;;5018305;28;20706;-78
2024/02/04 01:22:30;;;;;;;10.80;10.20;;;7.70;99.90;;;;;;5039718;28;20235;-78
2024/02/04 01:24:56;;;;;;;11.63;10.93;;;7.70;99.90;;;;;;5017309;28;20273;-78
2024/02/04 01:27:24;;;;;;;11.33;10.73;;;7.70;99.90;;;;;;5019782;28;20200;-78
2024/02/04 01:29:53;;;;;;;11.77;11.13;;;7.70;99.90;;;;;;5022249;28;20223;-78
2024/02/04 01:32:20;;;;;;;11.63;11.00;;;7.70;99.90;;;;;;5021059;28;20234;-78
2024/02/04 01:34:46;;;;;;;12.03;11.33;;;7.60;99.90;;;;;;5021747;28;20196;-78
2024/02/04 01:37:13;;;;;;;11.07;10.47;;;7.60;99.90;;;;;;5018112;28;20246;-78
2024/02/04 01:39:40;;;;;;;11.00;10.40;;;7.50;99.90;;;;;;5028217;28;20274;-78
2024/02/04 01:42:07;;;;;;;10.90;10.30;;;7.40;99.90;;;;;;5035345;28;20227;-78
2024/02/04 01:44:36;;;;;;;11.23;10.53;;;7.40;99.90;;;;;;5023111;28;20226;-78
2024/02/04 01:47:03;;;;;;;11.30;10.60;;;7.30;99.90;;;;;;5019018;28;20200;-78
2024/02/04 01:49:30;;;;;;;11.03;10.43;;;7.30;99.90;;;;;;5047559;28;20694;-78
2024/02/04 01:51:57;;;;;;;11.00;10.40;;;7.20;99.90;;;;;;5040347;28;20265;-78
2024/02/04 01:54:26;;;;;;;11.00;10.40;;;7.20;99.90;;;;;;5050340;28;20605;-78
2024/02/04 01:56:54;;;;;;;11.17;10.53;;;7.20;99.90;;;;;;5025028;28;20203;-78
2024/02/04 01:59:22;;;;;;;11.13;10.53;;;7.20;99.90;;;;;;5023887;28;20229;-78
2024/02/04 02:01:51;;;;;;;11.27;10.67;;;7.10;99.90;;;;;;5020071;28;20287;-78
2024/02/04 02:04:17;;;;;;;11.23;10.63;;;7.10;99.90;;;;;;5023745;28;20220;-78
2024/02/04 02:06:46;;;;;;;11.37;10.77;;;7.10;99.90;;;;;;5025503;28;20663;-78
2024/02/04 02:09:13;;;;;;;11.40;10.70;;;7.20;99.90;;;;;;5021798;28;20223;-78
2024/02/04 02:11:43;;;;;;;11.20;10.60;;;7.10;99.90;;;;;;5025422;28;20286;-78
2024/02/04 02:14:15;;;;;;;11.20;10.60;;;7.20;99.90;;;;;;5020901;28;20667;-78
2024/02/04 02:16:44;;;;;;;11.57;10.80;;;7.20;99.90;;;;;;5028868;28;20286;-78
2024/02/04 02:19:32;;;;;;;11.20;10.60;;;7.20;99.90;;;;;;5036549;28;20284;-78
2024/02/04 02:22:07;;;;;;;11.53;10.83;;;7.30;99.90;;;;;;5023870;28;20261;-78
2024/02/04 02:24:38;;;;;;;11.90;11.20;;;7.30;99.90;;;;;;5056323;28;20245;-78
2024/02/04 02:27:05;;;;;;;11.33;10.73;;;7.30;99.90;;;;;;5027523;28;20659;-78
2024/02/04 02:29:33;;;;;;;11.90;11.20;;;7.30;99.90;;;;;;5018390;28;20567;-78
2024/02/04 02:32:03;;;;;;;12.47;11.47;;;7.30;99.90;;;;;;5043837;28;20229;-78
2024/02/04 02:34:30;;;;;;;12.00;11.30;;;7.30;99.90;;;;;;5035852;28;20196;-78
2024/02/04 02:37:04;;;;;;;11.37;10.77;;;7.30;99.90;;;;;;5024623;28;20207;-78
2024/02/04 02:39:35;;;;;;;12.00;11.20;;;7.30;99.90;;;;;;5016814;28;20264;-78
2024/02/04 02:42:05;;;;;;;11.73;11.03;;;7.30;99.90;;;;;;5041017;28;20210;-78
2024/02/04 02:44:33;;;;;;;11.77;11.07;;;7.30;99.90;;;;;;5024521;28;20215;-79
2024/02/04 02:47:02;;;;;;;11.80;11.00;;;7.30;99.90;;;;;;5022375;28;20195;-78
2024/02/04 02:49:29;;;;;;;11.40;10.70;;;7.30;99.90;;;;;;5024426;28;20255;-78
2024/02/04 02:51:56;;;;;;;11.80;11.10;;;7.30;99.90;;;;;;5021806;28;20665;-78
2024/02/04 02:54:22;;;;;;;11.50;10.90;;;7.30;99.90;;;;;;5025883;28;20241;-79
2024/02/04 02:56:50;;;;;;;11.57;10.90;;;7.30;99.90;;;;;;5024020;28;20646;-79
2024/02/04 02:59:18;;;;;;;11.20;10.60;;;7.20;99.90;;;;;;5024414;28;20228;-78
2024/02/04 03:01:45;;;;;;;11.17;10.57;;;7.20;99.90;;;;;;5020217;28;20467;-78
2024/02/04 03:04:30;;;;;;;11.33;10.73;;;7.20;99.90;;;;;;5023663;28;20215;-78
2024/02/04 03:06:57;;;;;;;11.60;10.90;;;7.20;99.90;;;;;;5025236;28;20203;-78
2024/02/04 03:09:24;;;;;;;11.70;11.00;;;7.20;99.90;;;;;;5027390;28;20255;-78
2024/02/04 03:11:51;;;;;;;11.40;10.80;;;7.20;99.90;;;;;;5024798;28;20655;-78
2024/02/04 03:14:20;;;;;;;11.20;10.60;;;7.30;99.90;;;;;;5020707;28;20200;-78
2024/02/04 03:16:47;;;;;;;10.90;10.30;;;7.30;99.90;;;;;;5023923;28;20287;-78
2024/02/04 03:19:14;;;;;;;11.37;10.70;;;7.30;99.90;;;;;;5019804;28;20310;-78
2024/02/04 03:21:41;;;;;;;11.40;10.70;;;7.30;99.90;;;;;;5023337;28;20211;-78
2024/02/04 03:24:08;;;;;;;11.40;10.80;;;7.30;99.90;;;;;;5026399;28;20305;-78
2024/02/04 03:26:35;;;;;;;11.10;10.50;;;7.30;99.90;;;;;;5026925;28;20195;-78
2024/02/04 03:29:04;;;;;;;11.60;10.90;;;7.30;99.90;;;;;;5041042;28;20235;-78
2024/02/04 03:31:33;;;;;;;11.20;10.60;;;7.30;99.90;;;;;;5025251;28;20200;-78
2024/02/04 03:34:00;;;;;;;10.80;10.20;;;7.40;99.90;;;;;;5022623;28;20616;-79
2024/02/04 03:36:27;;;;;;;11.27;10.60;;;7.40;99.90;;;;;;5019307;28;20208;-78
2024/02/04 03:38:54;;;;;;;10.97;10.37;;;7.40;99.90;;;;;;5022399;28;20646;-79
2024/02/04 03:41:21;;;;;;;11.40;10.80;;;7.40;99.90;;;;;;5023292;28;20254;-78
2024/02/04 03:43:48;;;;;;;11.40;10.60;;;7.40;99.90;;;;;;5029959;28;20199;-78
2024/02/04 03:46:15;;;;;;;11.10;10.50;;;7.40;99.90;;;;;;5043081;28;20199;-78
2024/02/04 03:48:44;;;;;;;11.20;10.60;;;7.40;99.90;;;;;;5034270;28;20243;-78
2024/02/04 03:51:16;;;;;;;11.00;10.40;;;7.40;99.90;;;;;;5034405;28;20207;-78
2024/02/04 03:53:43;;;;;;;11.50;10.87;;;7.50;99.90;;;;;;5022590;28;20192;-78
2024/02/04 03:56:11;;;;;;;11.27;10.67;;;7.50;99.90;;;;;;5022411;28;20636;-79
2024/02/04 03:58:38;;;;;;;11.00;10.40;;;7.40;99.90;;;;;;5023046;28;20698;-78
2024/02/04 04:01:05;;;;;;;10.93;10.33;;;7.40;99.90;;;;;;5021701;28;20209;-78
2024/02/04 04:03:31;;;;;;;10.93;10.33;;;7.50;99.90;;;;;;5040722;28;20625;-78
2024/02/04 04:06:00;;;;;;;11.43;10.73;;;7.50;99.90;;;;;;5015360;28;20567;-80
2024/02/04 04:08:26;;;;;;;10.50;9.90;;;7.40;99.90;;;;;;5024129;28;20222;-78
2024/02/04 04:10:53;;;;;;;10.53;9.87;;;7.40;99.90;;;;;;5043803;28;20199;-78
2024/02/04 04:13:20;;;;;;;10.70;10.10;;;7.50;99.90;;;;;;5033731;28;20249;-78
2024/02/04 04:15:47;;;;;;;10.60;10.00;;;7.40;99.90;;;;;;5036022;28;20195;-78
2024/02/04 04:18:14;;;;;;;10.60;10.00;;;7.40;99.90;;;;;;5030044;28;20604;-78
2024/02/04 04:20:41;;;;;;;10.50;9.90;;;7.40;99.90;;;;;;5039216;28;20234;-77
2024/02/04 04:23:09;;;;;;;10.53;9.93;;;7.40;99.90;;;;;;5035947;28;20203;-79
2024/02/04 04:25:36;;;;;;;10.47;9.87;;;7.40;99.90;;;;;;5017814;28;20714;-78
2024/02/04 04:28:03;;;;;;;10.53;9.83;;;7.40;99.90;;;;;;5020900;28;20219;-79
2024/02/04 04:30:29;;;;;;;10.70;10.10;;;7.40;99.90;;;;;;5041195;28;20215;-77
2024/02/04 04:32:58;;;;;;;10.67;10.07;;;7.40;99.90;;;;;;5046578;28;20204;-79
2024/02/04 04:35:24;;;;;;;11.33;10.43;;;7.40;99.90;;;;;;5021475;28;20204;-79
2024/02/04 04:37:52;;;;;;;10.87;10.27;;;7.30;99.90;;;;;;5043255;28;20558;-78
2024/02/04 04:40:20;;;;;;;10.73;10.03;;;7.30;99.90;;;;;;5041824;28;20221;-78
2024/02/04 04:42:47;;;;;;;10.70;10.10;;;7.30;99.90;;;;;;5020832;28;20196;-78
2024/02/04 04:45:14;;;;;;;10.87;10.27;;;7.30;99.90;;;;;;5025841;28;20220;-78
2024/02/04 04:47:41;;;;;;;10.83;10.20;;;7.30;99.90;;;;;;5033267;28;20257;-78
2024/02/04 04:50:08;;;;;;;10.60;10.00;;;7.20;99.90;;;;;;5044612;28;20219;-78
2024/02/04 04:52:35;;;;;;;10.77;10.17;;;7.20;99.90;;;;;;5033368;28;20657;-78
2024/02/04 04:55:02;;;;;;;10.97;10.37;;;7.20;99.90;;;;;;5045993;28;20663;-78
2024/02/04 04:57:30;;;;;;;10.70;10.10;;;7.10;99.90;;;;;;5032858;28;20470;-78
2024/02/04 04:59:58;;;;;;;10.53;9.93;;;7.10;99.90;;;;;;5051194;28;20219;-78
2024/02/04 05:02:25;;;;;;;10.33;9.73;;;7.10;99.90;;;;;;5047186;28;20191;-78
2024/02/04 05:04:52;;;;;;;10.60;10.00;;;7.10;99.90;;;;;;5029490;28;20270;-78
2024/02/04 05:07:19;;;;;;;10.27;9.70;;;7.00;99.90;;;;;;5029309;28;20203;-78
2024/02/04 05:09:46;;;;;;;10.60;9.90;;;7.00;99.90;;;;;;5020003;28;20215;-78
2024/02/04 05:12:13;;;;;;;10.50;9.90;;;7.00;99.90;;;;;;5023332;28;20203;-78
2024/02/04 05:14:41;;;;;;;10.30;9.70;;;7.00;99.90;;;;;;5051019;28;20249;-78
2024/02/04 05:17:09;;;;;;;10.60;10.00;;;7.00;99.90;;;;;;5019108;28;20580;-79
2024/02/04 05:19:36;;;;;;;10.63;10.03;;;7.00;99.90;;;;;;5018202;28;20226;-78
2024/02/04 05:22:03;;;;;;;10.50;9.90;;;6.90;99.90;;;;;;5044529;28;20199;-78
2024/02/04 05:24:30;;;;;;;10.40;9.80;;;6.90;99.90;;;;;;5019631;28;20261;-78
2024/02/04 05:26:56;;;;;;;10.70;10.10;;;6.90;99.90;;;;;;5038444;28;20210;-78
2024/02/04 05:29:23;;;;;;;10.60;10.00;;;6.90;99.90;;;;;;5038296;28;20231;-78
2024/02/04 05:31:51;;;;;;;10.50;9.90;;;7.00;99.90;;;;;;5043727;28;20696;-78
2024/02/04 05:34:19;;;;;;;10.70;10.10;;;7.00;99.90;;;;;;5021960;28;20219;-79
2024/02/04 05:36:45;;;;;;;10.70;10.10;;;7.00;99.90;;;;;;5031815;28;20261;-79
2024/02/04 05:39:13;;;;;;;10.90;10.30;;;7.10;99.90;;;;;;5025158;28;20247;-80
2024/02/04 05:41:40;;;;;;;10.40;9.80;;;7.10;99.90;;;;;;5044964;28;20200;-80
2024/02/04 05:44:08;;;;;;;10.50;9.90;;;7.10;99.90;;;;;;5028904;28;20199;-78
2024/02/04 05:46:35;;;;;;;10.60;10.00;;;7.10;99.90;;;;;;5038087;28;20222;-79
2024/02/04 05:49:04;;;;;;;10.47;9.87;;;7.10;99.90;;;;;;5025879;28;20246;-77
2024/02/04 05:51:32;;;;;;;10.17;9.57;;;7.10;99.90;;;;;;5046083;28;20199;-78
2024/02/04 05:53:59;;;;;;;10.53;9.93;;;7.10;99.90;;;;;;5045852;28;20261;-77
2024/02/04 05:56:27;;;;;;;10.90;10.30;;;7.20;99.90;;;;;;5045925;28;20671;-77
2024/02/04 05:58:53;;;;;;;10.80;10.20;;;7.20;99.90;;;;;;5021825;28;20203;-80
2024/02/04 06:01:20;;;;;;;10.90;10.30;;;7.20;99.90;;;;;;5040721;28;20199;-79
2024/02/04 06:03:47;;;;;;;10.90;10.30;;;7.20;99.90;;;;;;5027253;28;20649;-80
2024/02/04 06:06:19;;;;;;;10.90;10.30;;;7.20;99.90;;;;;;5038629;28;20215;-79
2024/02/04 06:08:46;;;;;;;10.40;9.80;;;7.20;99.90;;;;;;5026110;28;20249;-80
2024/02/04 06:11:13;;;;;;;10.50;9.90;;;7.20;99.90;;;;;;5039737;28;20258;-77
2024/02/04 06:13:41;;;;;;;10.47;9.87;;;7.20;99.90;;;;;;5041980;28;20207;-77
2024/02/04 06:16:08;;;;;;;10.50;9.80;;;7.20;99.90;;;;;;5038122;28;20188;-78
2024/02/04 06:18:37;;;;;;;10.60;10.00;;;7.20;99.90;;;;;;5031345;28;20665;-77
2024/02/04 06:21:04;;;;;;;10.13;9.53;;;7.20;99.90;;;;;;5043830;28;20255;-76
2024/02/04 06:23:32;;;;;;;10.10;9.50;;;7.20;99.90;;;;;;5034010;28;20619;-80
2024/02/04 06:25:59;;;;;;;10.47;9.87;;;7.20;99.90;;;;;;5037348;28;20281;-77
2024/02/04 06:28:26;;;;;;;10.50;9.90;;;7.20;99.90;;;;;;5038842;28;20200;-77
2024/02/04 06:30:53;;;;;;;10.43;9.80;;;7.20;99.90;;;;;;5050705;28;20188;-77
2024/02/04 06:33:20;;;;;;;10.07;9.27;;;7.20;99.90;;;;;;5020751;28;20204;-78
2024/02/04 06:35:47;;;;;;;10.07;9.57;;;7.20;99.90;;;;;;5026723;28;20195;-78
2024/02/04 06:38:14;;;;;;;10.80;10.20;;;7.20;99.90;;;;;;5027283;28;20199;-78
2024/02/04 06:40:42;;;;;;;10.20;9.60;;;7.20;99.90;;;;;;5050813;28;20203;-78
2024/02/04 06:43:09;;;;;;;10.27;9.67;;;7.20;99.90;;;;;;5020642;28;20254;-79
2024/02/04 06:45:36;;;;;;;10.30;9.70;;;7.20;99.90;;;;;;5047071;28;20258;-79
2024/02/04 06:48:03;;;;;;;10.50;9.90;;;7.20;99.90;;;;;;5053584;28;20252;-78
2024/02/04 06:50:30;;;;;;;10.50;9.90;;;7.20;99.90;;;;;;5035850;28;20231;-78
2024/02/04 06:52:57;;;;;;;10.10;9.60;;;7.20;99.90;;;;;;5032332;28;20211;-76
2024/02/04 06:55:23;;;;;;;10.60;10.00;;;7.20;99.90;;;;;;5024376;28;20250;-78
2024/02/04 06:57:52;;;;;;;10.70;10.10;;;7.20;99.90;;;;;;5027842;28;20222;-78
2024/02/04 07:00:19;;;;;;;10.80;10.20;;;7.10;99.90;;;;;;5041304;28;20350;-78
2024/02/04 07:02:46;;;;;;;10.40;9.80;;;7.20;99.90;;;;;;5022438;28;20258;-79
2024/02/04 07:05:15;;;;;;;10.27;9.70;;;7.20;99.90;;;;;;5025337;28;20266;-79
2024/02/04 07:07:42;;;;;;;10.70;10.10;;;7.20;99.90;;;;;;5050712;28;20226;-78
2024/02/04 07:10:09;;;;;;;10.70;10.10;;;7.20;99.90;;;;;;5040867;28;20345;-79
2024/02/04 07:12:36;;;;;;;10.70;10.10;;;7.20;99.90;;;;;;5033807;28;20233;-77
2024/02/04 07:15:05;;;;;;;11.03;10.43;;;7.30;99.90;;;;;;5044174;28;20204;-79
2024/02/04 07:17:31;;;;;;;10.77;10.17;;;7.30;99.90;;;;;;5035080;28;20720;-78
2024/02/04 07:19:58;;;;;;;10.43;9.90;;;7.30;99.90;;;;;;5031119;28;20223;-78
2024/02/04 07:22:25;;;;;;;10.33;9.83;;;7.40;99.90;;;;;;5035250;28;20807;-79
2024/02/04 07:24:52;;;;;;;10.70;10.10;;;7.40;99.90;;;;;;5035652;28;20195;-79
2024/02/04 07:27:19;;;;;;;10.93;10.23;;;7.40;99.90;;;;;;5035436;28;20211;-78
2024/02/04 07:29:47;;;;;;;10.80;10.20;;;7.40;99.90;;;;;;5032446;28;20227;-78
2024/02/04 07:32:15;;;;;;;11.00;10.40;;;7.40;99.90;;;;;;5020307;28;20225;-79
2024/02/04 07:34:42;;;;;;;11.03;10.43;;;7.50;99.90;;;;;;5025636;28;20207;-78
2024/02/04 07:37:09;;;;;;;11.07;10.47;;;7.60;99.90;;;;;;5024646;28;20210;-78
2024/02/04 07:39:36;;;;;;;10.70;10.00;;;7.60;99.90;;;;;;5032597;28;20223;-78
2024/02/04 07:42:03;;;;;;;10.40;9.80;;;7.60;99.90;;;;;;5031235;28;20238;-78
2024/02/04 07:44:29;;;;;;;10.80;10.20;;;7.70;99.90;;;;;;5045217;28;20199;-78
2024/02/04 07:46:57;;;;;;;10.57;9.97;;;7.80;99.90;;;;;;5025509;28;20222;-78
2024/02/04 07:49:25;;;;;;;10.27;9.67;;;7.80;99.90;;;;;;5033156;28;20243;-77
2024/02/04 07:51:51;;;;;;;10.50;9.90;;;7.80;99.90;;;;;;5031499;28;20613;-76
2024/02/04 07:54:18;;;;;;;10.63;10.03;;;7.90;99.90;;;;;;5052641;28;20625;-76
2024/02/04 07:56:45;;;;;;;10.40;9.80;;;7.90;99.90;;;;;;5032381;28;20215;-77
2024/02/04 07:59:12;;;;;;;10.50;9.90;;;7.90;99.90;;;;;;5034606;28;20245;-76
2024/02/04 08:01:42;;;;;;;10.93;10.27;;;7.90;99.90;;;;;;5035816;28;20284;-77
2024/02/04 08:04:10;;;;;;;10.63;10.03;;;7.90;99.90;;;;;;5046510;28;20199;-77
2024/02/04 08:06:38;;;;;;;10.67;10.07;;;7.90;99.90;;;;;;5053961;28;20207;-81
2024/02/04 08:09:06;;;;;;;10.93;10.23;;;8.00;99.90;;;;;;5032112;28;20614;-78
2024/02/04 08:11:33;;;;;;;10.67;9.97;;;7.90;99.90;;;;;;5026667;28;20199;-77
2024/02/04 08:14:00;;;;;;;10.60;10.00;;;8.00;99.90;;;;;;5021558;28;20235;-78
2024/02/04 08:16:26;;;;;;;10.33;9.73;;;8.00;99.90;;;;;;5046320;28;20681;-77
2024/02/04 08:18:53;;;;;;;10.87;10.17;;;8.00;99.90;;;;;;5049997;28;20215;-79
2024/02/04 08:21:20;;;;;;;10.50;9.90;;;8.00;99.90;;;;;;5033223;28;20321;-78
2024/02/04 08:23:48;;;;;;;10.50;9.90;;;8.10;99.90;;;;;;5046348;28;20863;-78
2024/02/04 08:26:15;;;;;;;10.47;9.87;;;8.20;99.90;;;;;;5041988;28;20302;-77
2024/02/04 08:28:42;;;;;;;10.77;10.03;;;8.20;99.90;;;;;;5052702;28;20563;-78
2024/02/04 08:31:09;;;;;;;10.33;9.70;;;8.30;99.90;;;;;;5051766;28;20252;-78
2024/02/04 08:33:35;;;;;;;10.70;10.00;;;8.30;99.90;;;;;;5052420;28;20207;-80
2024/02/04 08:36:02;;;;;;;10.90;10.20;;;8.40;99.90;;;;;;5052436;28;20199;-80
2024/02/04 08:38:29;;;;;;;10.63;10.03;;;8.40;99.90;;;;;;5032958;28;20221;-78
2024/02/04 08:40:57;;;;;;;9.10;8.60;;;8.50;99.90;;;;;;5026155;28;20744;-78
2024/02/04 08:43:24;;;;;;;9.20;8.60;;;8.50;99.90;;;;;;5053047;28;20199;-81
2024/02/04 08:45:51;;;;;;;9.40;8.80;;;8.50;99.90;;;;;;5026723;28;20235;-79
2024/02/04 08:48:17;;;;;;;9.10;8.60;;;8.70;99.90;;;;;;5051958;28;20200;-79
2024/02/04 08:50:44;;;;;;;9.37;8.77;;;8.70;99.90;;;;;;5025926;28;20213;-78
2024/02/04 08:53:11;;;;;;;9.60;9.00;;;8.80;99.90;;;;;;5034431;28;20205;-80
2024/02/04 08:55:38;;;;;;;9.50;8.90;;;8.90;99.90;;;;;;5027998;28;20195;-77
2024/02/04 08:58:06;;;;;;;9.50;8.90;;;8.90;99.90;;;;;;5031616;28;20203;-78
2024/02/04 09:00:33;;;;;;;9.33;8.83;;;9.00;99.90;;;;;;5035633;28;20220;-78
2024/02/04 09:02:59;;;;;;;9.50;9.00;;;9.00;99.90;;;;;;5035610;28;20269;-77
2024/02/04 09:05:26;;;;;;;9.70;9.10;;;9.00;99.90;;;;;;5056486;28;20195;-79
2024/02/04 09:07:55;;;;;;;10.63;9.80;;;9.20;99.90;;;;;;5054722;28;20187;-78
2024/02/04 09:10:21;;;;;;;10.13;9.53;;;9.20;99.90;;;;;;5040304;28;20215;-79
2024/02/04 09:12:48;;;;;;;10.27;9.67;;;9.30;99.90;;;;;;5037826;28;20206;-80
2024/02/04 09:15:16;;;;;;;9.80;9.20;;;9.30;99.90;;;;;;5051476;28;20219;-78
2024/02/04 09:17:43;;;;;;;10.17;9.57;;;9.40;99.90;;;;;;5052122;28;20200;-77
2024/02/04 09:20:11;;;;;;;10.50;9.90;;;9.40;99.90;;;;;;5042408;28;20738;-78
2024/02/04 09:22:39;;;;;;;10.20;9.60;;;9.50;99.90;;;;;;5051316;28;20278;-78
2024/02/04 09:25:06;;;;;;;10.33;9.73;;;9.50;99.90;;;;;;5026873;28;20258;-78
2024/02/04 09:27:33;;;;;;;10.30;9.70;;;9.60;99.90;;;;;;5051553;28;20220;-77
2024/02/04 09:30:00;;;;;;;10.30;9.70;;;9.60;99.90;;;;;;5029669;28;20229;-78
2024/02/04 09:32:28;;;;;;;10.10;9.50;;;9.60;99.90;;;;;;5034114;28;20211;-77
2024/02/04 09:34:55;;;;;;;9.97;9.37;;;9.60;99.90;;;;;;5054293;28;20475;-80
2024/02/04 09:37:22;;;;;;;10.07;9.57;;;9.70;99.90;;;;;;5031009;28;20186;-78
2024/02/04 09:39:49;;;;;;;10.40;9.80;;;9.80;99.90;;;;;;5044305;28;20751;-78
2024/02/04 09:42:20;;;;;;;3.60;3.40;;;10.00;99.90;;;;;;5035686;28;20609;-78
2024/02/04 09:44:48;;;;;;;2.53;2.33;;;10.10;99.90;;;;;;5051403;28;20680;-78
2024/02/04 09:47:15;;;;;;;8.60;8.00;;;10.20;99.90;;;;;;5031670;28;20256;-78
2024/02/04 09:49:43;;;;;;;2.30;2.20;;;10.30;99.90;;;;;;5055324;28;20225;-78
2024/02/04 09:52:12;;;;;;;8.93;8.43;;;10.40;99.90;;;;;;5037573;28;20205;-77
2024/02/04 09:54:44;;;;;;;9.00;8.50;;;10.40;99.90;;;;;;5036116;28;20204;-77
2024/02/04 09:57:12;;;;;;;10.10;9.50;;;10.50;99.90;;;;;;5044893;28;20595;-77
2024/02/04 09:59:39;;;;;;;5.60;5.30;;;10.70;99.90;;;;;;5028501;28;20360;-79
2024/02/04 10:02:06;;;;;;;7.97;7.43;;;10.70;99.90;;;;;;5047878;28;20211;-78
2024/02/04 10:04:34;;;;;;;7.43;7.03;;;10.70;99.90;;;;;;5030499;28;20199;-78
2024/02/04 10:07:02;;;;;;;7.30;6.90;;;10.80;99.90;;;;;;5021956;28;20237;-78
2024/02/04 10:09:30;;;;;;;10.20;9.50;;;10.70;99.90;;;;;;5024891;28;20276;-77
2024/02/04 10:11:57;;;;;;;10.57;9.87;;;10.60;99.90;;;;;;5039793;28;20249;-78
2024/02/04 10:14:24;;;;;;;10.53;9.83;;;10.60;99.90;;;;;;5043983;28;20256;-78
2024/02/04 10:16:51;;;;;;;6.10;5.80;;;10.50;99.90;;;;;;5027227;28;20202;-78
2024/02/04 10:19:18;;;;;;;7.00;6.60;;;10.60;99.90;;;;;;5040342;28;20216;-79
2024/02/04 10:21:44;;;;;;;6.53;6.20;;;10.60;99.90;;;;;;5039805;28;20199;-79
2024/02/04 10:24:12;;;;;;;6.30;6.00;;;10.60;99.90;;;;;;5048598;28;20198;-78
2024/02/04 10:26:43;;;;;;;11.30;10.60;;;10.70;99.90;;;;;;5027570;28;20291;-78
2024/02/04 10:29:10;;;;;;;7.20;6.80;;;10.70;99.90;;;;;;5037986;28;20222;-79
2024/02/04 10:31:36;;;;;;;7.40;7.00;;;10.80;99.90;;;;;;5044030;28;20194;-78
2024/02/04 10:34:03;;;;;;;4.60;4.40;;;11.10;99.90;;;;;;5019958;28;20211;-78
2024/02/04 10:36:31;;;;;;;8.80;8.30;;;11.40;99.90;;;;;;5023486;28;20246;-78
2024/02/04 10:38:58;;;;;;;6.80;6.40;;;11.60;99.90;;;;;;5037347;28;20281;-78
2024/02/04 10:41:30;;;;;;;8.90;8.40;;;11.70;99.90;;;;;;5039553;28;20322;-78
2024/02/04 10:43:59;;;;;;;10.00;9.40;;;11.70;99.90;;;;;;5027634;28;20260;-78
2024/02/04 10:46:30;;;;;;;9.50;8.90;;;11.70;99.90;;;;;;5019741;28;20219;-77
2024/02/04 10:49:01;;;;;;;9.20;8.60;;;11.70;99.90;;;;;;5028351;28;20246;-80
2024/02/04 10:51:28;;;;;;;9.27;8.77;;;11.80;99.90;;;;;;5032665;28;20270;-81
2024/02/04 10:53:56;;;;;;;9.70;9.10;;;11.80;99.90;;;;;;5002573;28;20255;-79
2024/02/04 10:56:31;;;;;;;9.67;9.07;;;11.90;99.90;;;;;;5016624;28;20243;-81
2024/02/04 10:59:00;;;;;;;9.33;8.83;;;11.70;99.90;;;;;;5009436;28;20230;-80
2024/02/04 11:01:27;;;;;;;9.53;8.97;;;11.70;99.90;;;;;;5019877;28;20196;-79
2024/02/04 11:03:55;;;;;;;9.40;8.80;;;11.80;99.90;;;;;;5020898;28;20615;-80
2024/02/04 11:06:23;;;;;;;9.77;9.27;;;11.90;99.90;;;;;;5006612;28;20227;-79
2024/02/04 11:08:50;;;;;;;9.90;9.30;;;12.00;99.90;;;;;;5014363;28;20216;-79
2024/02/04 11:11:17;;;;;;;9.87;9.27;;;11.90;99.90;;;;;;5007355;28;20576;-80
2024/02/04 11:13:47;;;;;;;10.17;9.57;;;12.00;99.90;;;;;;5022430;28;20196;-80
2024/02/04 11:16:24;;;;;;;9.33;8.77;;;11.90;99.90;;;;;;5021784;28;20207;-81
2024/02/04 11:19:04;;;;;;;9.30;8.80;;;11.80;99.90;;;;;;5006638;28;20219;-80
2024/02/04 11:21:51;;;;;;;9.30;8.60;;;11.70;99.90;;;;;;5026059;28;20204;-78
2024/02/04 11:24:29;;;;;;;8.87;8.37;;;11.50;99.90;;;;;;5033248;28;20598;-80
2024/02/04 11:26:56;;;;;;;9.33;8.83;;;11.50;99.90;;;;;;5007917;28;20224;-80
2024/02/04 11:29:26;;;;;;;9.20;8.70;;;11.50;99.90;;;;;;5007840;28;20227;-78
2024/02/04 11:31:53;;;;;;;8.70;8.20;;;11.60;99.90;;;;;;5027188;28;20277;-82
2024/02/04 11:34:20;;;;;;;8.57;8.17;;;11.60;99.90;;;;;;5024996;28;20676;-78
2024/02/04 11:36:47;;;;;;;8.73;8.10;;;11.60;99.90;;;;;;5030473;28;20187;-78
2024/02/04 11:39:15;;;;;;;8.83;8.33;;;11.70;99.90;;;;;;5014801;28;20256;-79
2024/02/04 11:41:49;;;;;;;8.90;8.40;;;11.80;99.90;;;;;;5018626;28;20234;-79
2024/02/04 11:44:21;;;;;;;9.10;8.60;;;11.90;99.90;;;;;;5032665;28;20203;-79
2024/02/04 11:46:49;;;;;;;8.90;8.40;;;11.90;99.90;;;;;;5004964;28;20227;-77
2024/02/04 11:49:17;;;;;;;8.50;8.10;;;12.00;99.90;;;;;;5005735;28;20281;-78
2024/02/04 11:51:48;;;;;;;9.00;8.50;;;12.00;99.90;;;;;;5029346;28;20275;-78
2024/02/04 11:54:16;;;;;;;8.90;8.40;;;12.20;99.90;;;;;;5032615;28;20210;-77
2024/02/04 11:56:44;;;;;;;9.27;8.77;;;12.30;99.90;;;;;;5019389;28;20189;-80
2024/02/04 11:59:12;;;;;;;9.50;9.00;;;12.40;99.90;;;;;;5024506;28;20713;-80
2024/02/04 12:01:39;;;;;;;9.60;9.10;;;12.50;99.90;;;;;;5028124;28;20197;-79
2024/02/04 12:04:14;;;;;;;9.00;8.50;;;12.50;99.90;;;;;;5010356;28;20296;-79
2024/02/04 12:06:42;;;;;;;8.60;8.10;;;12.70;99.90;;;;;;5026275;28;20701;-78
2024/02/04 12:09:09;;;;;;;8.60;8.20;;;12.80;99.90;;;;;;5013488;28;20220;-79
2024/02/04 12:11:37;;;;;;;9.20;8.70;;;12.90;99.90;;;;;;5019476;28;20192;-79
2024/02/04 12:14:05;;;;;;;9.00;8.50;;;13.00;99.90;;;;;;5023707;28;20203;-77
2024/02/04 12:16:32;;;;;;;8.40;8.00;;;13.20;99.90;;;;;;5003740;28;20250;-78
2024/02/04 12:18:59;;;;;;;9.50;9.00;;;13.30;99.90;;;;;;5026241;28;20216;-78
2024/02/04 12:21:28;;;;;;;9.70;9.10;;;13.30;99.90;;;;;;5022648;28;20231;-78
2024/02/04 12:23:55;;;;;;;9.67;9.10;;;13.20;99.90;;;;;;5025540;28;20226;-80
2024/02/04 12:26:23;;;;;;;10.03;9.53;;;13.10;99.90;;;;;;5008610;28;20295;-79
2024/02/04 12:28:50;;;;;;;9.07;8.57;;;13.10;99.90;;;;;;5015860;28;20250;-77
2024/02/04 12:31:18;;;;;;;10.00;9.40;;;13.00;99.90;;;;;;5018323;28;20208;-79
2024/02/04 12:33:54;;;;;;;9.30;8.77;;;13.10;99.90;;;;;;5026954;28;20279;-78
2024/02/04 12:36:21;;;;;;;9.97;9.37;;;13.10;99.90;;;;;;5031953;28;20277;-77
2024/02/04 12:38:53;;;;;;;9.70;9.20;;;13.00;99.90;;;;;;5035698;28;20211;-81
2024/02/04 12:41:20;;;;;;;10.00;9.40;;;13.10;99.90;;;;;;5031033;28;20201;-78
2024/02/04 12:43:50;;;;;;;10.07;9.47;;;13.10;99.90;;;;;;5026461;28;20258;-79